This is the latest recevied weather packets stored in our database for station/object OK2ZI. If no packets are shown the sender has not sent any weather packets the latest 10 day(s).
| Time | Temp. | Humidity | Pressure | Rain* | Wind** | Luminosity | Snow |
|---|---|---|---|---|---|---|---|
| 1778146086 | 18.33° C | 49% | 1009 hPa | 0 mm | - | - | - |
| 1778145616 | 17.78° C | 54% | 1009 hPa | 0 mm | - | - | - |
| 1778145487 | 17.22° C | 56% | 1009 hPa | 0 mm | - | - | - |
| 1778145245 | 17.78° C | 54% | 1009 hPa | 0 mm | - | - | - |
| 1778144175 | 16.67° C | 60% | 1009 hPa | 0 mm | - | - | - |
| 1778143329 | 16.67° C | 61% | 1009 hPa | 0 mm | - | - | - |
| 1778143015 | 16.11° C | 62% | 1009 hPa | 0 mm | - | - | - |
| 1778142730 | 15.56° C | 65% | 1009 hPa | 0 mm | - | - | - |
| 1778142390 | 15.56° C | 64% | 1009 hPa | 0 mm | - | - | - |
| 1778141185 | 15° C | 66% | 1009 hPa | 0 mm | - | - | - |
| 1778139967 | 14.44° C | 70% | 1009 hPa | 0 mm | - | - | - |
| 1778138167 | 14.44° C | 69% | 1009 hPa | 0 mm | - | - | - |
| 1778136127 | 12.78° C | 76% | 1008 hPa | 0 mm | - | - | - |
| 1778136011 | 12.78° C | 75% | 1008 hPa | 0 mm | - | - | - |
| 1778135647 | 13.33° C | 75% | 1008 hPa | 0 mm | - | - | - |
| 1778134927 | 12.78° C | 77% | 1008 hPa | 0 mm | - | - | - |
| 1778134812 | 12.78° C | 78% | 1008 hPa | 0 mm | - | - | - |
| 1778134565 | 12.78° C | 78% | 1008 hPa | 0 mm | - | - | - |
| 1778133623 | 12.22° C | 79% | 1008 hPa | 0 mm | - | - | - |
| 1778132886 | 12.22° C | 80% | 1008 hPa | 0 mm | - | - | - |
| 1778132527 | 11.67° C | 81% | 1008 hPa | 0 mm | - | - | - |
| 1778132046 | 11.67° C | 81% | 1008 hPa | 0 mm | - | - | - |
| 1778131566 | 11.67° C | 82% | 1008 hPa | 0 mm | - | - | - |
| 1778131327 | 11.67° C | 83% | 1008 hPa | 0 mm | - | - | - |
| 1778128447 | 11.67° C | 84% | 1007 hPa | 0 mm | - | - | - |
* Rain latest hour (hover to see other rain measurements)
** Current wind speed in m/s (hover to see current wind gust speed)